sensor_id;sensor_type;location;lat;lon;timestamp;P1;durP1;ratioP1;P2;durP2;ratioP2
16770;SDS011;8503;52.472;13.344;2022-07-22T00:00:51;6.45;;;4.80;;
16770;SDS011;8503;52.472;13.344;2022-07-22T00:02:14;6.22;;;5.15;;
16770;SDS011;8503;52.472;13.344;2022-07-22T00:03:38;5.32;;;4.57;;
16770;SDS011;8503;52.472;13.344;2022-07-22T00:05:03;6.65;;;4.70;;
16770;SDS011;8503;52.472;13.344;2022-07-22T00:06:28;6.00;;;4.60;;
16770;SDS011;8503;52.472;13.344;2022-07-22T00:07:51;4.53;;;4.13;;
16770;SDS011;8503;52.472;13.344;2022-07-22T00:09:15;9.02;;;4.55;;
16770;SDS011;8503;52.472;13.344;2022-07-22T00:10:40;6.50;;;4.35;;
16770;SDS011;8503;52.472;13.344;2022-07-22T00:12:04;5.80;;;4.55;;
16770;SDS011;8503;52.472;13.344;2022-07-22T00:13:27;5.15;;;4.13;;
16770;SDS011;8503;52.472;13.344;2022-07-22T00:14:50;8.20;;;3.83;;
16770;SDS011;8503;52.472;13.344;2022-07-22T00:16:15;7.72;;;4.32;;
16770;SDS011;8503;52.472;13.344;2022-07-22T00:17:39;7.30;;;4.28;;
16770;SDS011;8503;52.472;13.344;2022-07-22T00:19:03;7.82;;;4.00;;
16770;SDS011;8503;52.472;13.344;2022-07-22T00:20:26;10.43;;;4.50;;
16770;SDS011;8503;52.472;13.344;2022-07-22T00:21:50;6.50;;;4.70;;
16770;SDS011;8503;52.472;13.344;2022-07-22T00:23:13;6.25;;;4.68;;
16770;SDS011;8503;52.472;13.344;2022-07-22T00:24:37;6.53;;;4.10;;
16770;SDS011;8503;52.472;13.344;2022-07-22T00:26:02;6.18;;;4.60;;
16770;SDS011;8503;52.472;13.344;2022-07-22T00:27:26;5.93;;;4.25;;
16770;SDS011;8503;52.472;13.344;2022-07-22T00:28:49;6.60;;;4.43;;
16770;SDS011;8503;52.472;13.344;2022-07-22T00:30:14;7.82;;;4.20;;
16770;SDS011;8503;52.472;13.344;2022-07-22T00:31:37;8.93;;;3.97;;
16770;SDS011;8503;52.472;13.344;2022-07-22T00:33:01;5.90;;;4.10;;
16770;SDS011;8503;52.472;13.344;2022-07-22T00:34:25;5.28;;;4.30;;
16770;SDS011;8503;52.472;13.344;2022-07-22T00:35:48;4.43;;;3.85;;
16770;SDS011;8503;52.472;13.344;2022-07-22T00:37:12;5.80;;;4.60;;
16770;SDS011;8503;52.472;13.344;2022-07-22T00:38:36;5.75;;;4.13;;
16770;SDS011;8503;52.472;13.344;2022-07-22T00:40:00;5.63;;;4.60;;
16770;SDS011;8503;52.472;13.344;2022-07-22T00:41:25;7.90;;;4.60;;
16770;SDS011;8503;52.472;13.344;2022-07-22T00:42:47;6.68;;;4.40;;
16770;SDS011;8503;52.472;13.344;2022-07-22T00:44:13;5.85;;;4.28;;
16770;SDS011;8503;52.472;13.344;2022-07-22T00:45:37;9.38;;;5.13;;
16770;SDS011;8503;52.472;13.344;2022-07-22T00:47:01;4.60;;;4.00;;
16770;SDS011;8503;52.472;13.344;2022-07-22T00:48:25;5.93;;;4.60;;
16770;SDS011;8503;52.472;13.344;2022-07-22T00:49:48;5.80;;;4.32;;
16770;SDS011;8503;52.472;13.344;2022-07-22T00:51:12;7.57;;;5.45;;
16770;SDS011;8503;52.472;13.344;2022-07-22T00:52:35;4.97;;;4.30;;
16770;SDS011;8503;52.472;13.344;2022-07-22T00:53:59;7.07;;;4.25;;
16770;SDS011;8503;52.472;13.344;2022-07-22T00:55:23;5.88;;;4.18;;
16770;SDS011;8503;52.472;13.344;2022-07-22T00:56:49;5.05;;;4.28;;
16770;SDS011;8503;52.472;13.344;2022-07-22T00:58:11;9.05;;;3.92;;
16770;SDS011;8503;52.472;13.344;2022-07-22T00:59:35;6.90;;;4.10;;
16770;SDS011;8503;52.472;13.344;2022-07-22T01:00:58;9.93;;;4.65;;
16770;SDS011;8503;52.472;13.344;2022-07-22T01:02:21;4.07;;;3.55;;
16770;SDS011;8503;52.472;13.344;2022-07-22T01:03:45;4.30;;;3.63;;
16770;SDS011;8503;52.472;13.344;2022-07-22T01:05:11;6.20;;;3.80;;
16770;SDS011;8503;52.472;13.344;2022-07-22T01:06:37;4.32;;;3.92;;
16770;SDS011;8503;52.472;13.344;2022-07-22T01:08:00;7.40;;;3.88;;
16770;SDS011;8503;52.472;13.344;2022-07-22T01:09:28;3.95;;;3.53;;
16770;SDS011;8503;52.472;13.344;2022-07-22T01:10:52;4.38;;;3.30;;
16770;SDS011;8503;52.472;13.344;2022-07-22T01:12:18;5.05;;;3.97;;
16770;SDS011;8503;52.472;13.344;2022-07-22T01:13:41;7.22;;;4.20;;
16770;SDS011;8503;52.472;13.344;2022-07-22T01:15:06;7.53;;;3.50;;
16770;SDS011;8503;52.472;13.344;2022-07-22T01:16:30;6.40;;;3.20;;
16770;SDS011;8503;52.472;13.344;2022-07-22T01:18:00;8.15;;;4.05;;
16770;SDS011;8503;52.472;13.344;2022-07-22T01:19:23;4.47;;;3.65;;
16770;SDS011;8503;52.472;13.344;2022-07-22T01:20:48;5.00;;;3.70;;
16770;SDS011;8503;52.472;13.344;2022-07-22T01:22:12;5.38;;;3.45;;
16770;SDS011;8503;52.472;13.344;2022-07-22T01:23:35;4.47;;;3.72;;
16770;SDS011;8503;52.472;13.344;2022-07-22T01:24:59;3.88;;;3.20;;
16770;SDS011;8503;52.472;13.344;2022-07-22T01:26:23;4.60;;;3.45;;
16770;SDS011;8503;52.472;13.344;2022-07-22T01:27:46;6.70;;;3.47;;
16770;SDS011;8503;52.472;13.344;2022-07-22T01:29:09;4.07;;;3.28;;
16770;SDS011;8503;52.472;13.344;2022-07-22T01:30:33;3.75;;;3.10;;
16770;SDS011;8503;52.472;13.344;2022-07-22T01:31:56;3.90;;;3.50;;
16770;SDS011;8503;52.472;13.344;2022-07-22T01:33:21;4.40;;;3.17;;
16770;SDS011;8503;52.472;13.344;2022-07-22T01:34:44;3.70;;;3.40;;
16770;SDS011;8503;52.472;13.344;2022-07-22T01:36:09;4.22;;;3.30;;
16770;SDS011;8503;52.472;13.344;2022-07-22T01:37:35;3.25;;;2.90;;
16770;SDS011;8503;52.472;13.344;2022-07-22T01:38:57;3.40;;;2.90;;
16770;SDS011;8503;52.472;13.344;2022-07-22T01:40:23;7.45;;;3.55;;
16770;SDS011;8503;52.472;13.344;2022-07-22T01:41:47;3.60;;;3.30;;
16770;SDS011;8503;52.472;13.344;2022-07-22T01:43:11;4.55;;;3.00;;
16770;SDS011;8503;52.472;13.344;2022-07-22T01:44:39;4.80;;;2.90;;
16770;SDS011;8503;52.472;13.344;2022-07-22T01:46:02;5.28;;;3.53;;
16770;SDS011;8503;52.472;13.344;2022-07-22T01:47:25;4.85;;;3.38;;
16770;SDS011;8503;52.472;13.344;2022-07-22T01:48:49;4.25;;;2.97;;
16770;SDS011;8503;52.472;13.344;2022-07-22T01:50:15;3.60;;;3.05;;
16770;SDS011;8503;52.472;13.344;2022-07-22T01:51:41;3.67;;;3.17;;
16770;SDS011;8503;52.472;13.344;2022-07-22T01:53:04;3.63;;;2.90;;
16770;SDS011;8503;52.472;13.344;2022-07-22T01:54:28;7.90;;;2.97;;
16770;SDS011;8503;52.472;13.344;2022-07-22T01:55:51;3.35;;;2.92;;
16770;SDS011;8503;52.472;13.344;2022-07-22T01:57:14;3.95;;;3.28;;
16770;SDS011;8503;52.472;13.344;2022-07-22T01:58:38;4.20;;;3.47;;
16770;SDS011;8503;52.472;13.344;2022-07-22T02:00:03;4.15;;;3.55;;
16770;SDS011;8503;52.472;13.344;2022-07-22T02:01:26;5.55;;;3.65;;
16770;SDS011;8503;52.472;13.344;2022-07-22T02:02:50;5.00;;;3.85;;
16770;SDS011;8503;52.472;13.344;2022-07-22T02:04:13;4.57;;;3.28;;
16770;SDS011;8503;52.472;13.344;2022-07-22T02:05:37;4.95;;;3.17;;
16770;SDS011;8503;52.472;13.344;2022-07-22T02:07:02;4.68;;;3.53;;
16770;SDS011;8503;52.472;13.344;2022-07-22T02:08:26;5.53;;;3.60;;
16770;SDS011;8503;52.472;13.344;2022-07-22T02:09:48;3.78;;;3.22;;
16770;SDS011;8503;52.472;13.344;2022-07-22T02:11:12;4.63;;;3.20;;
16770;SDS011;8503;52.472;13.344;2022-07-22T02:12:34;4.70;;;3.05;;
16770;SDS011;8503;52.472;13.344;2022-07-22T02:14:00;3.33;;;3.03;;
16770;SDS011;8503;52.472;13.344;2022-07-22T02:15:24;4.60;;;3.50;;
16770;SDS011;8503;52.472;13.344;2022-07-22T02:16:47;4.10;;;3.22;;
16770;SDS011;8503;52.472;13.344;2022-07-22T02:18:11;6.10;;;3.97;;
16770;SDS011;8503;52.472;13.344;2022-07-22T02:19:39;4.88;;;3.47;;
16770;SDS011;8503;52.472;13.344;2022-07-22T02:21:02;3.97;;;3.55;;
16770;SDS011;8503;52.472;13.344;2022-07-22T02:22:28;4.50;;;3.53;;
16770;SDS011;8503;52.472;13.344;2022-07-22T02:23:51;4.40;;;3.45;;
16770;SDS011;8503;52.472;13.344;2022-07-22T02:25:15;5.85;;;3.50;;
16770;SDS011;8503;52.472;13.344;2022-07-22T02:26:37;5.80;;;3.55;;
16770;SDS011;8503;52.472;13.344;2022-07-22T02:28:01;5.25;;;3.67;;
16770;SDS011;8503;52.472;13.344;2022-07-22T02:29:24;4.85;;;3.72;;
16770;SDS011;8503;52.472;13.344;2022-07-22T02:30:51;7.07;;;4.03;;
16770;SDS011;8503;52.472;13.344;2022-07-22T02:32:15;8.95;;;4.38;;
16770;SDS011;8503;52.472;13.344;2022-07-22T02:33:38;4.60;;;4.03;;
16770;SDS011;8503;52.472;13.344;2022-07-22T02:35:02;6.68;;;3.80;;
16770;SDS011;8503;52.472;13.344;2022-07-22T02:36:25;5.80;;;4.18;;
16770;SDS011;8503;52.472;13.344;2022-07-22T02:37:52;6.22;;;4.18;;
16770;SDS011;8503;52.472;13.344;2022-07-22T02:39:15;5.53;;;4.18;;
16770;SDS011;8503;52.472;13.344;2022-07-22T02:40:39;5.25;;;3.72;;
16770;SDS011;8503;52.472;13.344;2022-07-22T02:42:02;5.10;;;4.40;;
16770;SDS011;8503;52.472;13.344;2022-07-22T02:43:25;6.60;;;3.95;;
16770;SDS011;8503;52.472;13.344;2022-07-22T02:44:49;5.53;;;4.05;;
16770;SDS011;8503;52.472;13.344;2022-07-22T02:46:12;4.72;;;4.22;;
16770;SDS011;8503;52.472;13.344;2022-07-22T02:47:44;5.40;;;4.00;;
16770;SDS011;8503;52.472;13.344;2022-07-22T02:49:10;4.85;;;4.32;;
16770;SDS011;8503;52.472;13.344;2022-07-22T02:50:34;6.82;;;4.57;;
16770;SDS011;8503;52.472;13.344;2022-07-22T02:51:59;7.45;;;4.90;;
16770;SDS011;8503;52.472;13.344;2022-07-22T02:53:24;5.95;;;4.57;;
16770;SDS011;8503;52.472;13.344;2022-07-22T02:54:46;6.68;;;4.57;;
16770;SDS011;8503;52.472;13.344;2022-07-22T02:56:10;6.50;;;3.95;;
16770;SDS011;8503;52.472;13.344;2022-07-22T02:57:33;6.25;;;4.20;;
16770;SDS011;8503;52.472;13.344;2022-07-22T02:58:56;5.90;;;3.95;;
16770;SDS011;8503;52.472;13.344;2022-07-22T03:00:21;6.05;;;4.70;;
16770;SDS011;8503;52.472;13.344;2022-07-22T03:01:44;8.70;;;5.03;;
16770;SDS011;8503;52.472;13.344;2022-07-22T03:03:07;6.13;;;4.38;;
16770;SDS011;8503;52.472;13.344;2022-07-22T03:04:31;6.47;;;4.53;;
16770;SDS011;8503;52.472;13.344;2022-07-22T03:05:53;5.28;;;4.28;;
16770;SDS011;8503;52.472;13.344;2022-07-22T03:07:17;6.47;;;4.68;;
16770;SDS011;8503;52.472;13.344;2022-07-22T03:08:42;6.93;;;4.47;;
16770;SDS011;8503;52.472;13.344;2022-07-22T03:10:06;6.68;;;4.50;;
16770;SDS011;8503;52.472;13.344;2022-07-22T03:11:30;6.95;;;4.75;;
16770;SDS011;8503;52.472;13.344;2022-07-22T03:12:53;4.88;;;4.28;;
16770;SDS011;8503;52.472;13.344;2022-07-22T03:14:17;6.45;;;4.63;;
16770;SDS011;8503;52.472;13.344;2022-07-22T03:15:41;8.05;;;5.07;;
16770;SDS011;8503;52.472;13.344;2022-07-22T03:17:04;7.70;;;5.63;;
16770;SDS011;8503;52.472;13.344;2022-07-22T03:18:27;5.30;;;4.70;;
16770;SDS011;8503;52.472;13.344;2022-07-22T03:19:50;5.95;;;5.00;;
16770;SDS011;8503;52.472;13.344;2022-07-22T03:21:38;7.28;;;5.45;;
16770;SDS011;8503;52.472;13.344;2022-07-22T03:23:02;6.50;;;5.05;;
16770;SDS011;8503;52.472;13.344;2022-07-22T03:24:27;6.82;;;4.90;;
16770;SDS011;8503;52.472;13.344;2022-07-22T03:25:51;6.05;;;5.00;;
16770;SDS011;8503;52.472;13.344;2022-07-22T03:27:14;7.32;;;5.13;;
16770;SDS011;8503;52.472;13.344;2022-07-22T03:28:38;8.68;;;4.93;;
16770;SDS011;8503;52.472;13.344;2022-07-22T03:30:02;10.27;;;5.13;;
16770;SDS011;8503;52.472;13.344;2022-07-22T03:31:25;6.53;;;4.72;;
16770;SDS011;8503;52.472;13.344;2022-07-22T03:32:49;6.50;;;5.20;;
16770;SDS011;8503;52.472;13.344;2022-07-22T03:34:12;8.25;;;5.70;;
16770;SDS011;8503;52.472;13.344;2022-07-22T03:35:36;6.55;;;4.97;;
16770;SDS011;8503;52.472;13.344;2022-07-22T03:36:58;10.10;;;5.70;;
16770;SDS011;8503;52.472;13.344;2022-07-22T03:38:22;7.10;;;5.55;;
16770;SDS011;8503;52.472;13.344;2022-07-22T03:39:47;9.80;;;5.25;;
16770;SDS011;8503;52.472;13.344;2022-07-22T03:41:13;6.85;;;5.32;;
16770;SDS011;8503;52.472;13.344;2022-07-22T03:42:36;6.00;;;5.30;;
16770;SDS011;8503;52.472;13.344;2022-07-22T03:44:06;10.43;;;5.68;;
16770;SDS011;8503;52.472;13.344;2022-07-22T03:45:29;8.77;;;5.00;;
16770;SDS011;8503;52.472;13.344;2022-07-22T03:46:52;7.72;;;5.88;;
16770;SDS011;8503;52.472;13.344;2022-07-22T03:48:16;6.82;;;5.70;;
16770;SDS011;8503;52.472;13.344;2022-07-22T03:49:39;5.80;;;5.07;;
16770;SDS011;8503;52.472;13.344;2022-07-22T03:51:03;8.68;;;5.13;;
16770;SDS011;8503;52.472;13.344;2022-07-22T03:52:26;6.85;;;5.35;;
16770;SDS011;8503;52.472;13.344;2022-07-22T03:53:50;8.95;;;6.13;;
16770;SDS011;8503;52.472;13.344;2022-07-22T03:55:14;5.85;;;5.25;;
16770;SDS011;8503;52.472;13.344;2022-07-22T03:56:38;6.63;;;5.47;;
16770;SDS011;8503;52.472;13.344;2022-07-22T03:58:02;7.20;;;5.55;;
16770;SDS011;8503;52.472;13.344;2022-07-22T03:59:26;6.97;;;5.28;;
16770;SDS011;8503;52.472;13.344;2022-07-22T04:00:49;8.27;;;5.72;;
16770;SDS011;8503;52.472;13.344;2022-07-22T04:02:12;9.23;;;6.25;;
16770;SDS011;8503;52.472;13.344;2022-07-22T04:03:36;7.43;;;5.72;;
16770;SDS011;8503;52.472;13.344;2022-07-22T04:05:00;5.75;;;4.93;;
16770;SDS011;8503;52.472;13.344;2022-07-22T04:06:23;8.27;;;5.43;;
16770;SDS011;8503;52.472;13.344;2022-07-22T04:07:47;9.57;;;5.35;;
16770;SDS011;8503;52.472;13.344;2022-07-22T04:09:09;6.53;;;5.30;;
16770;SDS011;8503;52.472;13.344;2022-07-22T04:10:34;8.15;;;5.90;;
16770;SDS011;8503;52.472;13.344;2022-07-22T04:11:58;8.43;;;5.70;;
16770;SDS011;8503;52.472;13.344;2022-07-22T04:13:22;7.60;;;5.32;;
16770;SDS011;8503;52.472;13.344;2022-07-22T04:14:45;7.15;;;5.70;;
16770;SDS011;8503;52.472;13.344;2022-07-22T04:16:08;6.40;;;5.28;;
16770;SDS011;8503;52.472;13.344;2022-07-22T04:17:32;7.47;;;5.25;;
16770;SDS011;8503;52.472;13.344;2022-07-22T04:18:55;14.30;;;5.47;;
16770;SDS011;8503;52.472;13.344;2022-07-22T04:20:20;6.38;;;5.57;;
16770;SDS011;8503;52.472;13.344;2022-07-22T04:21:43;9.23;;;5.80;;
16770;SDS011;8503;52.472;13.344;2022-07-22T04:23:08;6.38;;;5.50;;
16770;SDS011;8503;52.472;13.344;2022-07-22T04:24:31;10.93;;;6.00;;
16770;SDS011;8503;52.472;13.344;2022-07-22T04:25:56;8.60;;;6.50;;
16770;SDS011;8503;52.472;13.344;2022-07-22T04:27:19;8.23;;;5.93;;
16770;SDS011;8503;52.472;13.344;2022-07-22T04:28:43;6.95;;;5.82;;
16770;SDS011;8503;52.472;13.344;2022-07-22T04:30:07;7.97;;;6.20;;
16770;SDS011;8503;52.472;13.344;2022-07-22T04:31:32;10.50;;;6.43;;
16770;SDS011;8503;52.472;13.344;2022-07-22T04:32:55;7.75;;;6.00;;
16770;SDS011;8503;52.472;13.344;2022-07-22T04:34:19;9.23;;;6.50;;
16770;SDS011;8503;52.472;13.344;2022-07-22T04:35:42;8.05;;;6.65;;
16770;SDS011;8503;52.472;13.344;2022-07-22T04:37:05;8.40;;;5.97;;
16770;SDS011;8503;52.472;13.344;2022-07-22T04:38:29;8.50;;;6.80;;
16770;SDS011;8503;52.472;13.344;2022-07-22T04:39:51;8.50;;;6.38;;
16770;SDS011;8503;52.472;13.344;2022-07-22T04:41:17;7.68;;;5.97;;
16770;SDS011;8503;52.472;13.344;2022-07-22T04:42:41;8.25;;;6.07;;
16770;SDS011;8503;52.472;13.344;2022-07-22T04:44:04;9.13;;;6.88;;
16770;SDS011;8503;52.472;13.344;2022-07-22T04:45:28;7.15;;;5.97;;
16770;SDS011;8503;52.472;13.344;2022-07-22T04:46:51;8.10;;;5.75;;
16770;SDS011;8503;52.472;13.344;2022-07-22T04:48:15;7.53;;;6.10;;
16770;SDS011;8503;52.472;13.344;2022-07-22T04:49:39;7.93;;;6.03;;
16770;SDS011;8503;52.472;13.344;2022-07-22T04:51:02;8.88;;;5.57;;
16770;SDS011;8503;52.472;13.344;2022-07-22T04:52:26;9.73;;;6.38;;
16770;SDS011;8503;52.472;13.344;2022-07-22T04:53:50;10.00;;;7.00;;
16770;SDS011;8503;52.472;13.344;2022-07-22T04:55:13;11.25;;;6.35;;
16770;SDS011;8503;52.472;13.344;2022-07-22T04:56:38;8.00;;;6.40;;
16770;SDS011;8503;52.472;13.344;2022-07-22T04:58:02;10.82;;;6.43;;
16770;SDS011;8503;52.472;13.344;2022-07-22T04:59:26;9.65;;;6.32;;
16770;SDS011;8503;52.472;13.344;2022-07-22T05:00:50;8.43;;;6.35;;
16770;SDS011;8503;52.472;13.344;2022-07-22T05:02:14;10.52;;;6.53;;
16770;SDS011;8503;52.472;13.344;2022-07-22T05:03:38;8.38;;;6.25;;
16770;SDS011;8503;52.472;13.344;2022-07-22T05:05:01;8.43;;;5.78;;
16770;SDS011;8503;52.472;13.344;2022-07-22T05:06:25;9.05;;;6.55;;
16770;SDS011;8503;52.472;13.344;2022-07-22T05:07:49;8.45;;;6.35;;
16770;SDS011;8503;52.472;13.344;2022-07-22T05:09:12;8.20;;;6.18;;
16770;SDS011;8503;52.472;13.344;2022-07-22T05:10:36;8.15;;;5.93;;
16770;SDS011;8503;52.472;13.344;2022-07-22T05:12:01;8.95;;;6.45;;
16770;SDS011;8503;52.472;13.344;2022-07-22T05:13:23;7.97;;;6.32;;
16770;SDS011;8503;52.472;13.344;2022-07-22T05:14:47;8.13;;;6.32;;
16770;SDS011;8503;52.472;13.344;2022-07-22T05:16:13;9.73;;;5.95;;
16770;SDS011;8503;52.472;13.344;2022-07-22T05:17:37;8.00;;;6.40;;
16770;SDS011;8503;52.472;13.344;2022-07-22T05:19:00;9.07;;;6.07;;
16770;SDS011;8503;52.472;13.344;2022-07-22T05:20:23;7.93;;;5.78;;
16770;SDS011;8503;52.472;13.344;2022-07-22T05:21:46;9.00;;;5.85;;
16770;SDS011;8503;52.472;13.344;2022-07-22T05:23:10;6.78;;;5.80;;
16770;SDS011;8503;52.472;13.344;2022-07-22T05:24:33;8.45;;;5.20;;
16770;SDS011;8503;52.472;13.344;2022-07-22T05:25:57;11.82;;;6.00;;
16770;SDS011;8503;52.472;13.344;2022-07-22T05:27:21;9.65;;;6.25;;
16770;SDS011;8503;52.472;13.344;2022-07-22T05:28:44;11.45;;;6.40;;
16770;SDS011;8503;52.472;13.344;2022-07-22T05:30:08;9.45;;;6.20;;
16770;SDS011;8503;52.472;13.344;2022-07-22T05:31:33;9.00;;;6.20;;
16770;SDS011;8503;52.472;13.344;2022-07-22T05:32:56;8.77;;;5.95;;
16770;SDS011;8503;52.472;13.344;2022-07-22T05:34:20;8.82;;;6.05;;
16770;SDS011;8503;52.472;13.344;2022-07-22T05:35:44;11.23;;;6.38;;
16770;SDS011;8503;52.472;13.344;2022-07-22T05:37:07;9.38;;;6.47;;
16770;SDS011;8503;52.472;13.344;2022-07-22T05:38:31;8.73;;;6.68;;
16770;SDS011;8503;52.472;13.344;2022-07-22T05:39:54;8.93;;;6.38;;
16770;SDS011;8503;52.472;13.344;2022-07-22T05:41:18;6.85;;;6.20;;
16770;SDS011;8503;52.472;13.344;2022-07-22T05:42:43;9.32;;;6.25;;
16770;SDS011;8503;52.472;13.344;2022-07-22T05:44:06;11.55;;;6.18;;
16770;SDS011;8503;52.472;13.344;2022-07-22T05:45:30;7.93;;;6.20;;
16770;SDS011;8503;52.472;13.344;2022-07-22T05:46:53;7.25;;;5.78;;
16770;SDS011;8503;52.472;13.344;2022-07-22T05:48:17;7.65;;;5.78;;
16770;SDS011;8503;52.472;13.344;2022-07-22T05:49:41;8.90;;;6.32;;
16770;SDS011;8503;52.472;13.344;2022-07-22T05:51:10;8.15;;;5.97;;
16770;SDS011;8503;52.472;13.344;2022-07-22T05:52:35;9.88;;;6.30;;
16770;SDS011;8503;52.472;13.344;2022-07-22T05:53:59;9.25;;;6.38;;
16770;SDS011;8503;52.472;13.344;2022-07-22T05:55:25;8.07;;;6.00;;
16770;SDS011;8503;52.472;13.344;2022-07-22T05:56:48;10.95;;;6.75;;
16770;SDS011;8503;52.472;13.344;2022-07-22T05:58:13;9.48;;;6.45;;
16770;SDS011;8503;52.472;13.344;2022-07-22T05:59:37;9.90;;;5.90;;
16770;SDS011;8503;52.472;13.344;2022-07-22T06:01:02;12.68;;;6.82;;
16770;SDS011;8503;52.472;13.344;2022-07-22T06:02:26;8.70;;;6.72;;
16770;SDS011;8503;52.472;13.344;2022-07-22T06:03:50;7.55;;;6.28;;
16770;SDS011;8503;52.472;13.344;2022-07-22T06:05:13;13.88;;;6.68;;
16770;SDS011;8503;52.472;13.344;2022-07-22T06:06:56;7.88;;;6.50;;
16770;SDS011;8503;52.472;13.344;2022-07-22T06:08:19;9.68;;;6.53;;
16770;SDS011;8503;52.472;13.344;2022-07-22T06:09:43;11.77;;;7.03;;
16770;SDS011;8503;52.472;13.344;2022-07-22T06:11:06;9.15;;;6.05;;
16770;SDS011;8503;52.472;13.344;2022-07-22T06:12:30;10.05;;;6.45;;
16770;SDS011;8503;52.472;13.344;2022-07-22T06:13:55;10.30;;;6.35;;
16770;SDS011;8503;52.472;13.344;2022-07-22T06:15:18;10.50;;;6.03;;
16770;SDS011;8503;52.472;13.344;2022-07-22T06:16:41;6.85;;;6.15;;
16770;SDS011;8503;52.472;13.344;2022-07-22T06:18:05;7.63;;;6.25;;
16770;SDS011;8503;52.472;13.344;2022-07-22T06:19:27;9.68;;;6.78;;
16770;SDS011;8503;52.472;13.344;2022-07-22T06:20:51;5.85;;;5.10;;
16770;SDS011;8503;52.472;13.344;2022-07-22T06:22:14;8.82;;;6.50;;
16770;SDS011;8503;52.472;13.344;2022-07-22T06:23:39;6.32;;;5.70;;
16770;SDS011;8503;52.472;13.344;2022-07-22T06:25:03;6.70;;;5.75;;
16770;SDS011;8503;52.472;13.344;2022-07-22T06:26:47;8.50;;;5.70;;
16770;SDS011;8503;52.472;13.344;2022-07-22T06:28:11;6.68;;;5.97;;
16770;SDS011;8503;52.472;13.344;2022-07-22T06:29:36;7.20;;;5.45;;
16770;SDS011;8503;52.472;13.344;2022-07-22T06:31:00;6.97;;;6.28;;
16770;SDS011;8503;52.472;13.344;2022-07-22T06:32:22;7.60;;;5.22;;
16770;SDS011;8503;52.472;13.344;2022-07-22T06:33:46;6.68;;;4.60;;
16770;SDS011;8503;52.472;13.344;2022-07-22T06:35:09;7.60;;;5.68;;
16770;SDS011;8503;52.472;13.344;2022-07-22T06:36:32;9.52;;;5.53;;
16770;SDS011;8503;52.472;13.344;2022-07-22T06:37:55;6.80;;;5.07;;
16770;SDS011;8503;52.472;13.344;2022-07-22T06:39:27;9.50;;;5.80;;
16770;SDS011;8503;52.472;13.344;2022-07-22T06:40:51;6.32;;;5.05;;
16770;SDS011;8503;52.472;13.344;2022-07-22T06:42:15;7.03;;;5.93;;
16770;SDS011;8503;52.472;13.344;2022-07-22T06:43:39;8.40;;;5.40;;
16770;SDS011;8503;52.472;13.344;2022-07-22T06:45:04;7.18;;;5.28;;
16770;SDS011;8503;52.472;13.344;2022-07-22T06:46:31;7.05;;;5.70;;
16770;SDS011;8503;52.472;13.344;2022-07-22T06:47:54;11.02;;;6.00;;
16770;SDS011;8503;52.472;13.344;2022-07-22T06:49:18;8.63;;;5.80;;
16770;SDS011;8503;52.472;13.344;2022-07-22T06:50:45;7.53;;;5.82;;
16770;SDS011;8503;52.472;13.344;2022-07-22T06:52:14;9.80;;;5.43;;
16770;SDS011;8503;52.472;13.344;2022-07-22T06:53:37;8.95;;;5.45;;
16770;SDS011;8503;52.472;13.344;2022-07-22T06:55:01;9.55;;;6.43;;
16770;SDS011;8503;52.472;13.344;2022-07-22T06:56:24;8.63;;;5.05;;
16770;SDS011;8503;52.472;13.344;2022-07-22T06:57:48;8.93;;;5.20;;
16770;SDS011;8503;52.472;13.344;2022-07-22T06:59:11;6.63;;;5.45;;
16770;SDS011;8503;52.472;13.344;2022-07-22T07:00:36;7.22;;;5.70;;
16770;SDS011;8503;52.472;13.344;2022-07-22T07:02:00;6.07;;;5.03;;
16770;SDS011;8503;52.472;13.344;2022-07-22T07:03:30;6.93;;;5.25;;
16770;SDS011;8503;52.472;13.344;2022-07-22T07:04:56;11.93;;;5.18;;
16770;SDS011;8503;52.472;13.344;2022-07-22T07:06:20;10.00;;;5.72;;
16770;SDS011;8503;52.472;13.344;2022-07-22T07:07:43;6.05;;;4.45;;
16770;SDS011;8503;52.472;13.344;2022-07-22T07:09:07;6.63;;;5.35;;
16770;SDS011;8503;52.472;13.344;2022-07-22T07:10:31;7.13;;;4.97;;
16770;SDS011;8503;52.472;13.344;2022-07-22T07:11:54;6.78;;;5.15;;
16770;SDS011;8503;52.472;13.344;2022-07-22T07:13:18;7.68;;;4.80;;
16770;SDS011;8503;52.472;13.344;2022-07-22T07:14:40;7.13;;;5.00;;
16770;SDS011;8503;52.472;13.344;2022-07-22T07:16:25;5.10;;;4.57;;
16770;SDS011;8503;52.472;13.344;2022-07-22T07:17:49;5.07;;;4.47;;
16770;SDS011;8503;52.472;13.344;2022-07-22T07:19:13;5.28;;;4.03;;
16770;SDS011;8503;52.472;13.344;2022-07-22T07:20:36;5.47;;;4.35;;
16770;SDS011;8503;52.472;13.344;2022-07-22T07:22:00;7.03;;;4.47;;
16770;SDS011;8503;52.472;13.344;2022-07-22T07:23:27;6.13;;;4.05;;
16770;SDS011;8503;52.472;13.344;2022-07-22T07:24:51;7.13;;;4.13;;
16770;SDS011;8503;52.472;13.344;2022-07-22T07:26:15;6.15;;;5.05;;
16770;SDS011;8503;52.472;13.344;2022-07-22T07:27:39;5.35;;;4.00;;
16770;SDS011;8503;52.472;13.344;2022-07-22T07:29:03;6.22;;;4.00;;
16770;SDS011;8503;52.472;13.344;2022-07-22T07:30:27;5.50;;;3.72;;
16770;SDS011;8503;52.472;13.344;2022-07-22T07:31:52;4.75;;;3.95;;
16770;SDS011;8503;52.472;13.344;2022-07-22T07:33:16;4.57;;;3.65;;
16770;SDS011;8503;52.472;13.344;2022-07-22T07:34:46;5.07;;;4.57;;
16770;SDS011;8503;52.472;13.344;2022-07-22T07:36:10;7.50;;;3.92;;
16770;SDS011;8503;52.472;13.344;2022-07-22T07:37:33;5.22;;;3.80;;
16770;SDS011;8503;52.472;13.344;2022-07-22T07:38:57;5.00;;;4.35;;
16770;SDS011;8503;52.472;13.344;2022-07-22T07:40:22;4.00;;;3.60;;
16770;SDS011;8503;52.472;13.344;2022-07-22T07:41:46;4.18;;;3.20;;
16770;SDS011;8503;52.472;13.344;2022-07-22T07:43:15;7.13;;;3.70;;
16770;SDS011;8503;52.472;13.344;2022-07-22T07:44:39;3.95;;;3.55;;
16770;SDS011;8503;52.472;13.344;2022-07-22T07:46:03;4.97;;;4.32;;
16770;SDS011;8503;52.472;13.344;2022-07-22T07:47:28;3.97;;;3.63;;
16770;SDS011;8503;52.472;13.344;2022-07-22T07:48:52;4.15;;;3.50;;
16770;SDS011;8503;52.472;13.344;2022-07-22T07:50:15;4.38;;;3.50;;
16770;SDS011;8503;52.472;13.344;2022-07-22T07:51:39;6.97;;;3.55;;
16770;SDS011;8503;52.472;13.344;2022-07-22T07:53:04;3.97;;;3.58;;
16770;SDS011;8503;52.472;13.344;2022-07-22T07:54:28;3.72;;;3.42;;
16770;SDS011;8503;52.472;13.344;2022-07-22T07:56:12;4.53;;;3.30;;
16770;SDS011;8503;52.472;13.344;2022-07-22T07:57:36;4.65;;;3.42;;
16770;SDS011;8503;52.472;13.344;2022-07-22T07:58:59;6.93;;;3.38;;
16770;SDS011;8503;52.472;13.344;2022-07-22T08:00:43;4.50;;;3.45;;
16770;SDS011;8503;52.472;13.344;2022-07-22T08:02:07;6.53;;;3.35;;
16770;SDS011;8503;52.472;13.344;2022-07-22T08:03:32;6.10;;;3.67;;
16770;SDS011;8503;52.472;13.344;2022-07-22T08:04:56;4.35;;;3.78;;
16770;SDS011;8503;52.472;13.344;2022-07-22T08:06:20;3.53;;;3.22;;
16770;SDS011;8503;52.472;13.344;2022-07-22T08:07:44;3.47;;;3.17;;
16770;SDS011;8503;52.472;13.344;2022-07-22T08:09:07;5.38;;;3.40;;
16770;SDS011;8503;52.472;13.344;2022-07-22T08:10:31;4.40;;;3.42;;
16770;SDS011;8503;52.472;13.344;2022-07-22T08:12:15;12.38;;;3.53;;
16770;SDS011;8503;52.472;13.344;2022-07-22T08:13:39;4.80;;;2.83;;
16770;SDS011;8503;52.472;13.344;2022-07-22T08:15:04;3.55;;;3.25;;
16770;SDS011;8503;52.472;13.344;2022-07-22T08:16:28;3.83;;;3.40;;
16770;SDS011;8503;52.472;13.344;2022-07-22T08:17:51;4.03;;;3.17;;
16770;SDS011;8503;52.472;13.344;2022-07-22T08:19:17;4.55;;;3.58;;
16770;SDS011;8503;52.472;13.344;2022-07-22T08:20:41;3.50;;;3.20;;
16770;SDS011;8503;52.472;13.344;2022-07-22T08:22:04;9.18;;;3.53;;
16770;SDS011;8503;52.472;13.344;2022-07-22T08:23:29;4.55;;;3.28;;
16770;SDS011;8503;52.472;13.344;2022-07-22T08:24:53;5.45;;;3.25;;
16770;SDS011;8503;52.472;13.344;2022-07-22T08:26:17;4.43;;;3.30;;
16770;SDS011;8503;52.472;13.344;2022-07-22T08:27:41;4.55;;;3.20;;